createdAt,value
2022-12-22T00:01:06.902Z,0.54
2022-12-22T00:03:58.353Z,0.52
2022-12-22T00:06:53.330Z,0.52
2022-12-22T00:09:48.259Z,0.57
2022-12-22T00:12:40.651Z,0.58
2022-12-22T00:15:38.549Z,0.72
2022-12-22T00:18:40.726Z,0.70
2022-12-22T00:21:37.202Z,0.74
2022-12-22T00:24:30.792Z,0.64
2022-12-22T00:27:27.803Z,0.63
2022-12-22T00:30:22.233Z,0.62
2022-12-22T00:33:13.145Z,0.62
2022-12-22T00:36:05.239Z,0.61
2022-12-22T00:38:56.607Z,0.58
2022-12-22T00:41:47.979Z,0.53
2022-12-22T00:44:44.821Z,0.60
2022-12-22T00:47:45.771Z,0.70
2022-12-22T00:50:41.469Z,0.69
2022-12-22T00:53:35.487Z,0.72
2022-12-22T00:56:25.513Z,0.69
2022-12-22T00:59:20.624Z,0.77
2022-12-22T01:02:14.377Z,0.76
2022-12-22T01:05:04.171Z,0.76
2022-12-22T01:07:57.507Z,0.77
2022-12-22T01:10:46.811Z,0.66
2022-12-22T01:13:41.057Z,0.79
2022-12-22T01:16:36.425Z,0.67
2022-12-22T01:19:31.013Z,0.47
2022-12-22T01:22:27.820Z,0.52
2022-12-22T01:25:29.637Z,0.62
2022-12-22T01:28:25.409Z,0.61
2022-12-22T01:31:37.029Z,0.61
2022-12-22T01:34:31.176Z,0.47
2022-12-22T01:37:30.478Z,0.40
2022-12-22T01:40:33.173Z,0.57
2022-12-22T01:43:44.095Z,0.61
2022-12-22T01:46:41.406Z,0.58
2022-12-22T01:49:47.427Z,0.68
2022-12-22T01:52:41.414Z,0.54
2022-12-22T01:55:32.225Z,0.59
2022-12-22T01:58:21.228Z,0.52
2022-12-22T02:01:17.695Z,0.55
2022-12-22T02:04:15.248Z,0.60
2022-12-22T02:07:12.487Z,0.46
2022-12-22T02:10:18.210Z,0.55
2022-12-22T02:13:44.731Z,0.47
2022-12-22T02:16:58.311Z,0.50
2022-12-22T02:20:04.156Z,0.57
2022-12-22T02:23:20.130Z,0.73
2022-12-22T02:26:37.197Z,0.64
2022-12-22T02:29:31.653Z,0.60
2022-12-22T02:32:23.233Z,0.56
2022-12-22T02:35:16.548Z,0.68
2022-12-22T02:38:38.281Z,0.77
2022-12-22T02:41:48.067Z,0.82
2022-12-22T02:45:23.424Z,0.75
2022-12-22T02:48:27.336Z,0.80
2022-12-22T02:51:29.216Z,0.73
2022-12-22T02:54:22.365Z,0.71
2022-12-22T02:57:08.038Z,0.78
2022-12-22T02:59:56.091Z,0.89
2022-12-22T03:02:49.454Z,0.87
2022-12-22T03:05:41.022Z,0.88
2022-12-22T03:08:37.207Z,0.91
2022-12-22T03:11:33.757Z,0.93
2022-12-22T03:14:24.992Z,0.90
2022-12-22T03:17:13.178Z,0.94
2022-12-22T03:20:12.323Z,0.95
2022-12-22T03:23:14.413Z,1.10
2022-12-22T03:25:53.296Z,1.29
2022-12-22T03:28:36.868Z,1.16
2022-12-22T03:31:09.913Z,1.07
2022-12-22T03:33:47.534Z,1.07
2022-12-22T03:36:22.618Z,1.08
2022-12-22T03:38:54.917Z,1.07
2022-12-22T03:41:48.477Z,0.95
2022-12-22T03:44:42.523Z,1.00
2022-12-22T03:47:25.526Z,0.77
2022-12-22T03:49:57.415Z,0.83
2022-12-22T03:52:37.991Z,0.91
2022-12-22T03:55:24.837Z,0.92
2022-12-22T03:58:02.570Z,1.07
2022-12-22T04:00:40.806Z,0.95
2022-12-22T04:03:18.465Z,0.95
2022-12-22T04:05:53.783Z,0.97
2022-12-22T04:08:32.202Z,0.98
2022-12-22T04:11:23.446Z,1.10
2022-12-22T04:13:57.665Z,1.19
2022-12-22T04:16:40.787Z,1.05
2022-12-22T04:19:18.687Z,1.06
2022-12-22T04:21:51.709Z,1.25
2022-12-22T04:24:24.425Z,1.02
2022-12-22T04:26:57.086Z,0.91
2022-12-22T04:29:37.520Z,0.90
2022-12-22T04:32:23.855Z,0.88
2022-12-22T04:34:58.801Z,1.03
2022-12-22T04:37:34.915Z,1.05
2022-12-22T04:40:10.135Z,1.01
2022-12-22T04:42:48.372Z,1.15
2022-12-22T04:45:30.572Z,1.12
2022-12-22T04:48:11.949Z,1.08
2022-12-22T04:50:55.592Z,1.04
2022-12-22T04:53:34.205Z,1.11
2022-12-22T04:56:13.712Z,0.98
2022-12-22T04:58:49.112Z,1.03
2022-12-22T05:01:32.117Z,1.06
2022-12-22T05:04:14.469Z,1.04
2022-12-22T05:07:00.312Z,1.08
2022-12-22T05:09:44.189Z,1.15
2022-12-22T05:12:35.247Z,1.21
2022-12-22T05:15:13.697Z,1.12
2022-12-22T05:17:49.543Z,1.06
2022-12-22T05:20:27.395Z,1.10
2022-12-22T05:23:08.859Z,1.06
2022-12-22T05:25:40.965Z,1.10
2022-12-22T05:28:19.116Z,1.09
2022-12-22T05:30:59.936Z,1.06
2022-12-22T05:33:45.070Z,1.10
2022-12-22T05:36:30.899Z,1.07
2022-12-22T05:39:17.428Z,1.11
2022-12-22T05:41:49.446Z,1.03
2022-12-22T05:44:24.735Z,0.98
2022-12-22T05:47:00.353Z,1.03
2022-12-22T05:49:41.267Z,1.02
2022-12-22T05:52:19.043Z,0.96
2022-12-22T05:54:58.545Z,0.91
2022-12-22T05:57:36.145Z,0.93
2022-12-22T06:00:20.053Z,1.04
2022-12-22T06:02:58.849Z,1.10
2022-12-22T06:05:41.178Z,0.98
2022-12-22T06:08:20.435Z,0.97
2022-12-22T06:11:05.240Z,0.94
2022-12-22T06:13:42.508Z,0.99
2022-12-22T06:16:21.088Z,0.98
2022-12-22T06:18:53.342Z,0.98
2022-12-22T06:21:34.114Z,0.90
2022-12-22T06:24:15.190Z,0.95
2022-12-22T06:26:58.636Z,0.91
2022-12-22T06:29:43.522Z,0.99
2022-12-22T06:32:33.639Z,1.04
2022-12-22T06:35:11.648Z,0.97
2022-12-22T06:37:44.172Z,0.91
2022-12-22T06:40:25.837Z,0.98
2022-12-22T06:43:09.782Z,1.00
2022-12-22T06:45:45.845Z,1.00
2022-12-22T06:48:26.587Z,1.05
2022-12-22T06:51:01.633Z,1.10
2022-12-22T06:53:33.841Z,1.24
2022-12-22T06:56:11.782Z,1.34
2022-12-22T06:58:44.071Z,1.23
2022-12-22T07:01:19.856Z,1.20
2022-12-22T07:03:58.766Z,1.16
2022-12-22T07:06:39.605Z,1.21
2022-12-22T07:09:18.454Z,1.32
2022-12-22T07:11:56.064Z,1.38
2022-12-22T07:14:33.877Z,1.32
2022-12-22T07:17:15.132Z,1.30
2022-12-22T07:19:50.480Z,1.32
2022-12-22T07:22:29.529Z,1.27
2022-12-22T07:25:11.318Z,1.27
2022-12-22T07:27:53.363Z,1.23
2022-12-22T07:30:30.844Z,1.29
2022-12-22T07:33:08.749Z,1.35
2022-12-22T07:35:46.287Z,1.43
2022-12-22T07:38:29.477Z,1.51
2022-12-22T07:41:31.308Z,1.41
2022-12-22T07:44:15.616Z,1.46
2022-12-22T07:46:50.646Z,1.35
2022-12-22T07:49:46.994Z,1.39
2022-12-22T07:52:21.899Z,1.42
2022-12-22T07:55:08.471Z,1.36
2022-12-22T07:57:51.664Z,1.39
2022-12-22T08:00:30.281Z,1.39
2022-12-22T08:03:04.762Z,1.44
2022-12-22T08:05:48.505Z,1.51
2022-12-22T08:08:23.873Z,1.60
2022-12-22T08:11:05.068Z,1.50
2022-12-22T08:13:45.953Z,1.52
2022-12-22T08:16:29.960Z,1.63
2022-12-22T08:19:18.080Z,1.57
2022-12-22T08:21:53.321Z,1.66
2022-12-22T08:24:31.460Z,1.76
2022-12-22T08:27:25.864Z,1.83
2022-12-22T08:30:02.229Z,2.00
2022-12-22T08:32:40.739Z,2.11
2022-12-22T08:35:23.853Z,2.22
2022-12-22T08:37:59.214Z,2.27
2022-12-22T08:40:43.253Z,2.36
2022-12-22T08:43:17.087Z,2.64
2022-12-22T08:45:55.464Z,2.71
2022-12-22T08:48:34.192Z,2.73
2022-12-22T08:51:24.632Z,2.90
2022-12-22T08:54:05.420Z,3.15
2022-12-22T08:56:44.810Z,3.29
2022-12-22T08:59:20.065Z,3.44
2022-12-22T09:02:06.587Z,3.45
2022-12-22T09:04:38.041Z,3.46
2022-12-22T09:07:27.196Z,3.42
2022-12-22T09:09:59.492Z,3.40
2022-12-22T09:12:40.022Z,3.36
2022-12-22T09:15:14.927Z,3.26
2022-12-22T09:17:50.468Z,3.33
2022-12-22T09:20:30.397Z,3.40
2022-12-22T09:23:08.843Z,3.32
2022-12-22T09:25:52.263Z,3.38
2022-12-22T09:28:30.511Z,3.42
2022-12-22T09:31:09.489Z,3.46
2022-12-22T09:33:52.415Z,3.32
2022-12-22T09:36:37.906Z,3.38
2022-12-22T09:39:26.910Z,3.44
2022-12-22T09:42:14.241Z,3.52
2022-12-22T09:44:50.806Z,3.62
2022-12-22T09:47:55.489Z,3.67
2022-12-22T09:50:38.604Z,3.66
2022-12-22T09:53:22.925Z,3.76
2022-12-22T09:56:08.805Z,3.69
2022-12-22T09:58:59.807Z,3.65
2022-12-22T10:02:00.743Z,3.70
2022-12-22T10:04:48.761Z,3.77
2022-12-22T10:07:40.203Z,3.82
2022-12-22T10:10:29.107Z,3.72
2022-12-22T10:13:06.662Z,3.80
2022-12-22T10:15:54.997Z,3.82
2022-12-22T10:18:35.054Z,3.95
2022-12-22T10:21:15.837Z,3.79
2022-12-22T10:23:53.413Z,3.67
2022-12-22T10:26:41.179Z,3.73
2022-12-22T10:29:16.738Z,3.64
2022-12-22T10:32:02.088Z,3.82
2022-12-22T10:34:38.095Z,3.88
2022-12-22T10:37:25.345Z,4.08
2022-12-22T10:40:15.750Z,4.35
2022-12-22T10:43:02.212Z,4.44
2022-12-22T10:45:52.821Z,4.48
2022-12-22T10:48:37.424Z,4.43
2022-12-22T10:51:19.755Z,4.57
2022-12-22T10:54:06.657Z,4.60
2022-12-22T10:57:04.556Z,4.68
2022-12-22T10:59:59.196Z,4.62
2022-12-22T11:02:38.208Z,4.61
2022-12-22T11:05:29.159Z,4.55
2022-12-22T11:08:23.029Z,4.68
2022-12-22T11:11:11.325Z,4.73
2022-12-22T11:13:51.876Z,4.86
2022-12-22T11:16:45.994Z,4.91
2022-12-22T11:19:31.583Z,5.03
2022-12-22T11:22:25.195Z,4.91
2022-12-22T11:25:23.998Z,5.04
2022-12-22T11:28:11.005Z,5.07
2022-12-22T11:31:05.621Z,5.10
2022-12-22T11:33:52.331Z,5.09
2022-12-22T11:37:00.919Z,4.97
2022-12-22T11:39:59.263Z,4.91
2022-12-22T11:43:14.032Z,5.00
2022-12-22T11:46:18.779Z,4.95
2022-12-22T11:49:21.740Z,4.74
2022-12-22T11:52:31.679Z,4.94
2022-12-22T11:55:30.800Z,5.14
2022-12-22T11:58:21.810Z,5.09
2022-12-22T12:01:20.392Z,5.20
2022-12-22T12:04:27.400Z,5.04
2022-12-22T12:07:37.994Z,5.03
2022-12-22T12:10:25.126Z,5.06
2022-12-22T12:13:26.452Z,4.85
2022-12-22T12:16:29.821Z,4.84
2022-12-22T12:19:36.524Z,4.75
2022-12-22T12:22:32.034Z,4.94
2022-12-22T12:25:31.765Z,4.71
2022-12-22T12:28:42.814Z,4.71
2022-12-22T12:31:26.956Z,4.78
2022-12-22T12:34:03.855Z,4.69
2022-12-22T12:37:04.781Z,4.73
2022-12-22T12:39:58.975Z,4.73
2022-12-22T12:42:49.651Z,4.49
2022-12-22T12:45:49.185Z,4.28
2022-12-22T12:48:36.593Z,4.28
2022-12-22T12:51:48.930Z,4.32
2022-12-22T12:54:41.608Z,4.39
2022-12-22T12:57:47.955Z,4.36
2022-12-22T13:00:59.084Z,4.17
2022-12-22T13:06:52.087Z,4.26
2022-12-22T13:09:50.078Z,4.32
2022-12-22T13:13:08.900Z,4.35
2022-12-22T13:15:50.538Z,4.42
2022-12-22T13:18:58.670Z,4.29
2022-12-22T13:21:53.437Z,4.29
2022-12-22T13:24:35.856Z,4.21
2022-12-22T13:27:15.899Z,4.17
2022-12-22T13:29:56.182Z,4.23
2022-12-22T13:32:35.974Z,4.52
2022-12-22T13:35:33.036Z,4.38
2022-12-22T13:38:35.258Z,4.39
2022-12-22T13:41:27.430Z,4.40
2022-12-22T13:44:09.589Z,4.44
2022-12-22T13:46:44.437Z,4.34
2022-12-22T13:49:58.708Z,4.38
2022-12-22T13:52:27.370Z,4.33
2022-12-22T13:55:01.497Z,4.25
2022-12-22T13:57:38.904Z,4.15
2022-12-22T14:00:22.571Z,4.07
2022-12-22T14:02:59.125Z,3.95
2022-12-22T14:05:41.931Z,4.00
2022-12-22T14:08:31.444Z,3.86
2022-12-22T14:11:07.462Z,3.86
2022-12-22T14:13:54.585Z,3.97
2022-12-22T14:16:27.468Z,3.92
2022-12-22T14:19:04.224Z,3.84
2022-12-22T14:21:38.413Z,3.84
2022-12-22T14:24:29.253Z,3.82
2022-12-22T14:27:12.186Z,3.81
2022-12-22T14:29:45.349Z,3.93
2022-12-22T14:32:52.342Z,3.95
2022-12-22T14:36:02.558Z,4.10
2022-12-22T14:38:51.158Z,4.13
2022-12-22T14:41:41.570Z,3.90
2022-12-22T14:44:28.499Z,3.87
2022-12-22T14:47:17.831Z,3.79
2022-12-22T14:49:55.105Z,3.85
2022-12-22T14:52:36.328Z,3.86
2022-12-22T14:55:24.106Z,3.78
2022-12-22T14:58:09.172Z,3.78
2022-12-22T15:00:46.926Z,3.75
2022-12-22T15:03:38.626Z,3.63
2022-12-22T15:06:32.744Z,3.52
2022-12-22T15:09:47.225Z,3.52
2022-12-22T15:12:26.133Z,3.44
2022-12-22T15:15:15.687Z,3.56
2022-12-22T15:17:53.677Z,3.47
2022-12-22T15:20:31.200Z,3.40
2022-12-22T15:23:17.214Z,3.36
2022-12-22T15:25:53.378Z,3.39
2022-12-22T15:28:28.538Z,3.32
2022-12-22T15:31:08.204Z,3.47
2022-12-22T15:33:44.803Z,3.41
2022-12-22T15:36:18.300Z,3.45
2022-12-22T15:38:50.561Z,3.30
2022-12-22T15:41:36.967Z,3.33
2022-12-22T15:44:12.675Z,3.29
2022-12-22T15:46:54.430Z,3.24
2022-12-22T15:49:34.717Z,3.29
2022-12-22T15:52:14.904Z,3.36
2022-12-22T15:54:52.949Z,3.24
2022-12-22T15:57:34.026Z,3.32
2022-12-22T16:00:10.225Z,3.30
2022-12-22T16:02:48.693Z,3.29
2022-12-22T16:05:18.952Z,3.27
2022-12-22T16:07:51.905Z,3.26
2022-12-22T16:10:42.399Z,3.24
2022-12-22T16:13:25.297Z,3.23
2022-12-22T16:15:58.584Z,3.21
2022-12-22T16:18:34.336Z,3.17
2022-12-22T16:21:29.698Z,3.10
2022-12-22T16:24:04.121Z,3.13
2022-12-22T16:26:39.499Z,3.08
2022-12-22T16:29:21.077Z,3.15
2022-12-22T16:31:56.589Z,3.15
2022-12-22T16:34:39.471Z,3.17
2022-12-22T16:37:12.733Z,3.11
2022-12-22T16:39:55.602Z,3.15
2022-12-22T16:45:49.372Z,2.91
2022-12-22T16:48:28.760Z,3.07
2022-12-22T16:51:06.428Z,3.08
2022-12-22T16:53:38.859Z,2.97
2022-12-22T16:56:28.254Z,3.08
2022-12-22T16:59:01.026Z,3.07
2022-12-22T17:01:40.447Z,3.02
2022-12-22T17:04:23.931Z,2.98
2022-12-22T17:06:58.569Z,3.01
2022-12-22T17:09:40.646Z,3.07
2022-12-22T17:12:26.894Z,3.09
2022-12-22T17:15:04.787Z,3.14
2022-12-22T17:17:42.683Z,3.10
2022-12-22T17:20:31.839Z,3.20
2022-12-22T17:23:12.669Z,3.10
2022-12-22T17:25:47.681Z,3.12
2022-12-22T17:28:25.148Z,2.96
2022-12-22T17:31:00.157Z,3.06
2022-12-22T17:33:32.862Z,3.28
2022-12-22T17:36:03.887Z,3.29
2022-12-22T17:38:37.054Z,3.28
2022-12-22T17:41:16.980Z,3.17
2022-12-22T17:43:55.079Z,3.24
2022-12-22T17:46:33.516Z,3.22
2022-12-22T17:49:13.302Z,3.20
2022-12-22T17:51:50.770Z,3.14
2022-12-22T17:54:32.050Z,3.13
2022-12-22T17:57:16.121Z,3.19
2022-12-22T17:59:45.828Z,3.11
2022-12-22T18:02:29.952Z,3.31
2022-12-22T18:05:10.886Z,3.26
2022-12-22T18:07:50.385Z,3.28
2022-12-22T18:10:55.379Z,3.29
2022-12-22T18:13:36.220Z,3.23
2022-12-22T18:16:10.379Z,3.33
2022-12-22T18:18:54.675Z,3.20
2022-12-22T18:21:28.109Z,3.20
2022-12-22T18:24:05.865Z,3.20
2022-12-22T18:26:56.583Z,3.18
2022-12-22T18:29:38.280Z,3.30
2022-12-22T18:32:22.872Z,3.28
2022-12-22T18:35:04.630Z,3.26
2022-12-22T18:37:42.847Z,3.26
2022-12-22T18:40:28.664Z,3.12
2022-12-22T18:43:11.776Z,3.24
2022-12-22T18:46:04.528Z,3.25
2022-12-22T18:48:43.107Z,3.31
2022-12-22T18:51:39.603Z,3.24
2022-12-22T18:54:37.079Z,3.22
2022-12-22T18:57:29.352Z,3.27
2022-12-22T19:00:13.528Z,3.34
2022-12-22T19:02:54.844Z,3.26
2022-12-22T19:05:31.213Z,3.33
2022-12-22T19:08:06.857Z,3.41
2022-12-22T19:11:10.048Z,3.47
2022-12-22T19:13:52.746Z,3.57
2022-12-22T19:16:32.874Z,3.47
2022-12-22T19:19:15.432Z,3.39
2022-12-22T19:21:53.831Z,3.53
2022-12-22T19:24:34.984Z,3.48
2022-12-22T19:27:28.397Z,3.46
2022-12-22T19:30:08.545Z,3.41
2022-12-22T19:32:52.212Z,3.46
2022-12-22T19:35:29.493Z,3.46
2022-12-22T19:38:26.419Z,3.38
2022-12-22T19:41:09.896Z,3.52
2022-12-22T19:44:08.635Z,3.43
2022-12-22T19:46:50.334Z,3.41
2022-12-22T19:49:43.180Z,3.44
2022-12-22T19:52:20.561Z,3.42
2022-12-22T19:55:04.390Z,3.50
2022-12-22T19:57:36.789Z,3.58
2022-12-22T20:00:20.646Z,3.64
2022-12-22T20:03:00.114Z,3.63
2022-12-22T20:05:38.387Z,3.65
2022-12-22T20:08:17.405Z,3.66
2022-12-22T20:11:06.352Z,3.76
2022-12-22T20:13:53.460Z,3.76
2022-12-22T20:16:40.234Z,3.79
2022-12-22T20:19:29.511Z,3.86
2022-12-22T20:22:10.124Z,3.88
2022-12-22T20:24:54.869Z,3.93
2022-12-22T20:27:38.545Z,3.97
2022-12-22T20:30:32.769Z,3.98
2022-12-22T20:33:17.237Z,3.92
2022-12-22T20:36:26.474Z,3.94
2022-12-22T20:39:04.795Z,4.02
2022-12-22T20:41:52.908Z,4.08
2022-12-22T20:44:31.843Z,4.03
2022-12-22T20:47:23.649Z,4.09
2022-12-22T20:50:22.028Z,4.24
2022-12-22T20:53:02.683Z,4.13
2022-12-22T20:55:42.995Z,4.13
2022-12-22T20:58:32.671Z,4.09
2022-12-22T21:01:17.004Z,4.01
2022-12-22T21:04:20.033Z,4.03
2022-12-22T21:07:07.153Z,3.99
2022-12-22T21:09:48.452Z,3.98
2022-12-22T21:12:32.235Z,4.00
2022-12-22T21:15:18.185Z,4.05
2022-12-22T21:20:57.804Z,4.10
2022-12-22T21:23:32.794Z,4.05
2022-12-22T21:26:18.894Z,4.03
2022-12-22T21:29:02.292Z,3.99
2022-12-22T21:31:52.394Z,4.03
2022-12-22T21:34:30.373Z,4.07
2022-12-22T21:37:20.078Z,4.14
2022-12-22T21:40:12.192Z,4.12
2022-12-22T21:42:56.788Z,4.26
2022-12-22T21:45:43.958Z,4.26
2022-12-22T21:48:25.579Z,4.14
2022-12-22T21:51:03.705Z,4.16
2022-12-22T21:53:44.886Z,4.27
2022-12-22T21:56:32.205Z,4.31
2022-12-22T21:59:11.728Z,4.30
2022-12-22T22:01:53.599Z,4.32
2022-12-22T22:04:45.304Z,4.34
2022-12-22T22:07:28.342Z,4.36
2022-12-22T22:10:13.489Z,4.30
2022-12-22T22:12:51.700Z,4.44
2022-12-22T22:15:36.971Z,4.42
2022-12-22T22:18:17.409Z,4.34
2022-12-22T22:21:09.801Z,4.41
2022-12-22T22:24:01.682Z,4.41
2022-12-22T22:26:40.387Z,4.46
2022-12-22T22:29:20.718Z,4.44
2022-12-22T22:31:55.695Z,4.42
2022-12-22T22:34:41.389Z,4.18
2022-12-22T22:37:21.640Z,4.28
2022-12-22T22:40:04.410Z,4.19
2022-12-22T22:42:45.395Z,4.24
2022-12-22T22:45:39.324Z,4.19
2022-12-22T22:48:31.761Z,4.40
2022-12-22T22:51:14.939Z,4.45
2022-12-22T22:53:50.641Z,4.43
2022-12-22T22:56:35.514Z,4.30
2022-12-22T22:59:32.822Z,4.39
2022-12-22T23:02:19.290Z,4.46
2022-12-22T23:04:57.962Z,4.37
2022-12-22T23:07:34.195Z,4.40
2022-12-22T23:10:25.396Z,4.56
2022-12-22T23:13:15.349Z,4.40
2022-12-22T23:16:03.737Z,4.22
2022-12-22T23:18:42.731Z,4.20
2022-12-22T23:21:30.255Z,4.41
2022-12-22T23:24:09.365Z,4.28
2022-12-22T23:26:53.424Z,4.15
2022-12-22T23:29:45.786Z,4.25
2022-12-22T23:32:26.149Z,4.11
2022-12-22T23:35:06.913Z,4.16
2022-12-22T23:37:44.904Z,4.18
2022-12-22T23:40:50.965Z,4.13
2022-12-22T23:43:31.243Z,4.22
2022-12-22T23:46:29.304Z,4.25
2022-12-22T23:49:04.496Z,4.20
2022-12-22T23:51:57.261Z,4.29
2022-12-22T23:54:41.055Z,4.22
2022-12-22T23:57:32.184Z,4.29
